createdAt,value
2019-05-23T00:00:58.834Z,68.30
2019-05-23T00:03:52.332Z,68.70
2019-05-23T00:06:42.254Z,68.40
2019-05-23T00:09:31.386Z,68.60
2019-05-23T00:12:22.704Z,68.70
2019-05-23T00:15:00.973Z,68.80
2019-05-23T00:17:33.192Z,68.80
2019-05-23T00:20:06.066Z,68.80
2019-05-23T00:22:36.360Z,68.90
2019-05-23T00:25:09.882Z,69.00
2019-05-23T00:27:43.174Z,69.30
2019-05-23T00:30:16.143Z,69.30
2019-05-23T00:32:48.374Z,69.00
2019-05-23T00:35:20.034Z,69.30
2019-05-23T00:37:51.336Z,69.70
2019-05-23T00:40:22.833Z,69.30
2019-05-23T00:42:53.989Z,69.30
2019-05-23T00:45:27.135Z,69.30
2019-05-23T00:47:57.488Z,69.50
2019-05-23T00:50:28.697Z,69.30
2019-05-23T00:52:59.809Z,69.40
2019-05-23T00:55:30.518Z,69.40
2019-05-23T00:58:01.487Z,69.70
2019-05-23T01:00:32.485Z,69.40
2019-05-23T01:03:02.937Z,69.50
2019-05-23T01:05:34.051Z,69.70
2019-05-23T01:08:06.005Z,69.60
2019-05-23T01:10:36.688Z,69.80
2019-05-23T01:13:08.767Z,70.10
2019-05-23T01:15:41.867Z,70.60
2019-05-23T01:18:13.337Z,71.20
2019-05-23T01:21:03.158Z,70.30
2019-05-23T01:23:40.836Z,70.40
2019-05-23T01:26:12.457Z,70.20
2019-05-23T01:28:44.381Z,70.30
2019-05-23T01:31:32.959Z,70.60
2019-05-23T01:34:05.521Z,70.60
2019-05-23T01:36:38.301Z,70.90
2019-05-23T01:39:10.382Z,70.60
2019-05-23T01:41:42.244Z,70.50
2019-05-23T01:44:13.541Z,70.50
2019-05-23T01:46:45.117Z,70.70
2019-05-23T01:49:15.841Z,70.40
2019-05-23T01:51:46.175Z,70.60
2019-05-23T01:54:16.717Z,70.40
2019-05-23T01:56:48.105Z,70.40
2019-05-23T01:59:19.398Z,70.30
2019-05-23T02:01:49.988Z,70.60
2019-05-23T02:04:20.673Z,70.00
2019-05-23T02:06:51.268Z,70.20
2019-05-23T02:09:22.351Z,70.30
2019-05-23T02:11:53.037Z,70.40
2019-05-23T02:14:23.447Z,70.70
2019-05-23T02:16:55.973Z,71.20
2019-05-23T02:19:26.885Z,70.50
2019-05-23T02:21:58.769Z,70.60
2019-05-23T02:24:29.950Z,70.90
2019-05-23T02:27:01.929Z,70.60
2019-05-23T02:29:32.657Z,70.80
2019-05-23T02:32:05.482Z,70.90
2019-05-23T02:34:37.869Z,70.90
2019-05-23T02:37:26.947Z,70.60
2019-05-23T02:39:58.808Z,70.90
2019-05-23T02:42:34.759Z,70.70
2019-05-23T02:45:09.537Z,70.70
2019-05-23T02:47:42.637Z,70.80
2019-05-23T02:50:17.457Z,70.70
2019-05-23T02:52:50.461Z,70.90
2019-05-23T02:55:23.721Z,71.70
2019-05-23T02:57:54.403Z,70.80
2019-05-23T03:01:01.329Z,71.00
2019-05-23T03:07:23.852Z,71.00
2019-05-23T03:13:53.526Z,71.00
2019-05-23T03:20:11.444Z,71.10
2019-05-23T03:37:27.323Z,71.00
2019-05-23T03:46:57.665Z,71.00
2019-05-23T03:53:10.992Z,71.20
2019-05-23T03:59:12.988Z,71.40
2019-05-23T04:01:48.194Z,71.40
2019-05-23T04:04:24.294Z,71.50
2019-05-23T04:06:57.377Z,71.40
2019-05-23T04:09:28.066Z,71.30
2019-05-23T04:15:40.983Z,70.90
2019-05-23T04:18:17.434Z,70.70
2019-05-23T04:20:47.505Z,70.60
2019-05-23T04:23:17.940Z,70.70
2019-05-23T04:26:29.570Z,70.50
2019-05-23T04:29:00.174Z,70.60
2019-05-23T04:31:30.404Z,70.60
2019-05-23T04:37:42.560Z,70.60
2019-05-23T04:40:17.381Z,70.50
2019-05-23T04:42:47.735Z,70.60
2019-05-23T04:45:19.027Z,70.60
2019-05-23T04:51:30.039Z,70.60
2019-05-23T04:57:47.222Z,70.40
2019-05-23T05:04:00.086Z,70.40
2019-05-23T05:06:31.634Z,70.40
2019-05-23T05:09:02.623Z,70.80
2019-05-23T05:11:33.578Z,70.80
2019-05-23T05:17:46.547Z,70.80
2019-05-23T05:24:03.644Z,71.40
2019-05-23T05:30:21.485Z,71.30
2019-05-23T05:36:34.102Z,71.30
2019-05-23T05:42:54.672Z,71.20
2019-05-23T05:45:24.892Z,71.90
2019-05-23T05:55:08.159Z,70.70
2019-05-23T05:57:38.597Z,70.40
2019-05-23T06:00:23.366Z,70.40
2019-05-23T06:03:03.600Z,70.30
2019-05-23T06:05:29.102Z,70.20
2019-05-23T06:07:59.999Z,70.60
2019-05-23T06:10:43.389Z,69.80
2019-05-23T06:13:15.394Z,69.60
2019-05-23T06:15:45.959Z,69.50
2019-05-23T06:18:16.852Z,69.40
2019-05-23T06:20:48.134Z,69.30
2019-05-23T06:23:24.118Z,69.00
2019-05-23T06:25:54.726Z,68.90
2019-05-23T06:28:30.823Z,68.60
2019-05-23T06:31:02.130Z,68.60
2019-05-23T06:33:32.815Z,68.60
2019-05-23T06:36:03.279Z,68.60
2019-05-23T06:38:41.156Z,68.60
2019-05-23T06:41:12.236Z,68.70
2019-05-23T06:43:42.733Z,68.40
2019-05-23T06:46:14.333Z,68.30
2019-05-23T06:48:45.894Z,68.30
2019-05-23T06:51:17.529Z,68.20
2019-05-23T06:53:48.549Z,68.30
2019-05-23T06:56:22.589Z,68.20
2019-05-23T06:58:52.818Z,67.70
2019-05-23T07:01:24.711Z,67.10
2019-05-23T07:03:57.810Z,67.50
2019-05-23T07:06:29.626Z,67.60
2019-05-23T07:09:00.323Z,67.40
2019-05-23T07:11:30.965Z,67.40
2019-05-23T07:14:01.578Z,67.30
2019-05-23T07:16:38.873Z,67.10
2019-05-23T07:19:09.151Z,67.00
2019-05-23T07:21:41.344Z,66.80
2019-05-23T07:24:12.902Z,66.70
2019-05-23T07:26:43.443Z,66.40
2019-05-23T07:29:13.828Z,66.10
2019-05-23T07:31:53.647Z,65.00
2019-05-23T07:34:24.158Z,64.80
2019-05-23T07:36:54.715Z,65.40
2019-05-23T07:39:29.951Z,65.60
2019-05-23T07:42:00.594Z,64.90
2019-05-23T07:44:47.361Z,65.20
2019-05-23T07:47:07.487Z,64.50
2019-05-23T07:49:49.056Z,65.60
2019-05-23T07:52:22.377Z,64.20
2019-05-23T07:54:54.542Z,64.10
2019-05-23T07:57:26.273Z,64.10
2019-05-23T07:59:56.835Z,64.00
2019-05-23T08:02:36.567Z,63.80
2019-05-23T08:05:08.376Z,64.10
2019-05-23T08:07:40.319Z,64.00
2019-05-23T08:10:11.343Z,63.70
2019-05-23T08:12:41.896Z,63.50
2019-05-23T08:15:14.514Z,63.50
2019-05-23T08:17:50.726Z,63.20
2019-05-23T08:20:21.235Z,63.10
2019-05-23T08:22:58.135Z,62.60
2019-05-23T08:25:28.315Z,59.50
2019-05-23T08:28:02.713Z,61.70
2019-05-23T08:30:33.201Z,61.50
2019-05-23T08:33:15.220Z,60.60
2019-05-23T08:35:46.945Z,58.90
2019-05-23T08:38:18.609Z,58.30
2019-05-23T08:40:49.754Z,59.20
2019-05-23T08:43:26.090Z,59.80
2019-05-23T08:45:56.789Z,57.90
2019-05-23T08:48:30.835Z,59.40
2019-05-23T08:51:01.087Z,59.30
2019-05-23T08:53:31.386Z,60.00
2019-05-23T08:56:01.895Z,59.20
2019-05-23T08:58:32.279Z,59.90
2019-05-23T09:01:02.547Z,60.00
2019-05-23T09:03:34.168Z,59.20
2019-05-23T09:06:04.711Z,60.20
2019-05-23T09:08:39.130Z,60.30
2019-05-23T09:11:09.429Z,60.40
2019-05-23T09:13:40.871Z,60.60
2019-05-23T09:16:11.675Z,60.60
2019-05-23T09:18:42.308Z,60.50
2019-05-23T09:21:12.967Z,59.50
2019-05-23T09:23:45.159Z,59.40
2019-05-23T09:26:17.002Z,58.90
2019-05-23T09:28:48.265Z,59.00
2019-05-23T09:31:19.982Z,58.50
2019-05-23T09:33:52.979Z,57.10
2019-05-23T09:36:23.242Z,58.50
2019-05-23T09:38:58.031Z,58.70
2019-05-23T09:41:28.957Z,58.60
2019-05-23T09:44:00.248Z,57.50
2019-05-23T09:46:30.661Z,57.50
2019-05-23T09:49:11.029Z,58.20
2019-05-23T09:51:40.614Z,57.90
2019-05-23T09:54:15.455Z,57.70
2019-05-23T09:56:46.041Z,56.50
2019-05-23T09:59:16.294Z,57.20
2019-05-23T10:01:46.945Z,56.80
2019-05-23T10:04:18.377Z,52.80
2019-05-23T10:06:48.746Z,54.60
2019-05-23T10:09:22.060Z,55.00
2019-05-23T10:11:52.551Z,52.90
2019-05-23T10:14:30.687Z,53.40
2019-05-23T10:17:01.378Z,54.50
2019-05-23T10:19:32.132Z,54.00
2019-05-23T10:22:03.063Z,51.80
2019-05-23T10:24:43.860Z,51.20
2019-05-23T10:27:14.638Z,51.90
2019-05-23T10:29:50.640Z,51.80
2019-05-23T10:32:21.297Z,52.10
2019-05-23T10:34:51.706Z,52.30
2019-05-23T10:37:23.559Z,51.70
2019-05-23T10:39:56.377Z,52.80
2019-05-23T10:42:28.609Z,50.40
2019-05-23T10:45:00.082Z,51.30
2019-05-23T10:47:30.859Z,50.30
2019-05-23T10:50:08.751Z,50.80
2019-05-23T10:52:40.860Z,50.60
2019-05-23T10:55:12.568Z,50.30
2019-05-23T10:57:43.404Z,51.10
2019-05-23T11:00:21.878Z,51.30
2019-05-23T11:02:52.569Z,51.90
2019-05-23T11:05:31.181Z,51.20
2019-05-23T11:08:02.968Z,51.80
2019-05-23T11:10:42.041Z,51.10
2019-05-23T11:13:12.306Z,50.00
2019-05-23T11:19:13.438Z,49.80
2019-05-23T11:22:23.533Z,50.00
2019-05-23T11:24:54.194Z,50.30
2019-05-23T11:27:24.713Z,51.00
2019-05-23T11:30:29.702Z,51.10
2019-05-23T11:33:00.391Z,51.20
2019-05-23T11:35:31.014Z,50.80
2019-05-23T11:38:48.806Z,49.70
2019-05-23T11:41:19.407Z,48.60
2019-05-23T11:44:48.341Z,47.60
2019-05-23T11:48:00.045Z,47.80
2019-05-23T11:50:32.772Z,47.80
2019-05-23T11:53:03.066Z,45.60
2019-05-23T11:56:14.853Z,46.10
2019-05-23T11:58:45.071Z,47.70
2019-05-23T12:01:20.822Z,46.70
2019-05-23T12:05:06.195Z,47.50
2019-05-23T12:07:36.360Z,47.20
2019-05-23T12:10:08.061Z,47.10
2019-05-23T12:13:18.958Z,47.40
2019-05-23T12:15:49.732Z,46.30
2019-05-23T12:18:28.883Z,46.50
2019-05-23T12:21:00.389Z,46.30
2019-05-23T12:23:30.588Z,46.70
2019-05-23T12:29:52.387Z,46.90
2019-05-23T12:32:48.232Z,45.60
2019-05-23T12:35:18.559Z,44.90
2019-05-23T12:37:48.822Z,43.90
2019-05-23T12:40:31.687Z,45.40
2019-05-23T12:43:02.205Z,44.40
2019-05-23T12:45:32.856Z,42.90
2019-05-23T12:48:13.697Z,44.70
2019-05-23T12:50:45.598Z,43.10
2019-05-23T12:53:16.049Z,43.40
2019-05-23T12:55:50.283Z,43.00
2019-05-23T12:58:37.565Z,41.10
2019-05-23T13:01:09.700Z,41.10
2019-05-23T13:03:50.508Z,42.90
2019-05-23T13:06:21.324Z,41.80
2019-05-23T13:08:52.110Z,40.30
2019-05-23T13:15:05.214Z,42.60
2019-05-23T13:21:23.105Z,38.60
2019-05-23T13:27:38.942Z,38.70
2019-05-23T13:31:08.026Z,37.40
2019-05-23T13:33:38.396Z,38.90
2019-05-23T13:36:08.693Z,38.10
2019-05-23T13:42:20.299Z,38.80
2019-05-23T13:48:40.557Z,37.30
2019-05-23T13:54:57.711Z,36.50
2019-05-23T13:57:59.367Z,38.60
2019-05-23T14:00:30.471Z,38.50
2019-05-23T14:03:00.983Z,37.80
2019-05-23T14:09:18.046Z,37.30
2019-05-23T14:11:48.306Z,33.40
2019-05-23T14:14:18.734Z,36.20
2019-05-23T14:16:59.678Z,36.00
2019-05-23T14:19:30.613Z,36.30
2019-05-23T14:25:52.397Z,35.60
2019-05-23T14:35:09.344Z,33.00
2019-05-23T14:37:43.962Z,35.70
2019-05-23T14:53:50.707Z,34.00
2019-05-23T15:07:28.766Z,34.50
2019-05-23T15:10:00.435Z,33.80
2019-05-23T15:12:31.570Z,34.00
2019-05-23T15:18:50.247Z,33.70
2019-05-23T15:21:20.873Z,33.40
2019-05-23T15:27:37.493Z,32.80
2019-05-23T15:34:03.357Z,31.60
2019-05-23T15:40:19.948Z,33.10
2019-05-23T15:46:32.039Z,34.40
2019-05-23T15:49:24.152Z,35.40
2019-05-23T15:51:59.354Z,36.80
2019-05-23T16:04:41.717Z,38.40
2019-05-23T16:11:07.907Z,38.20
2019-05-23T16:17:07.797Z,37.90
2019-05-23T16:19:38.086Z,38.30
2019-05-23T16:22:14.150Z,38.40
2019-05-23T16:25:04.971Z,39.00
2019-05-23T16:27:36.456Z,39.40
2019-05-23T16:30:07.658Z,40.00
2019-05-23T16:32:37.924Z,39.80
2019-05-23T16:35:08.630Z,39.70
2019-05-23T16:37:38.990Z,40.20
2019-05-23T16:40:27.400Z,40.30
2019-05-23T16:42:57.658Z,40.50
2019-05-23T16:45:36.636Z,40.60
2019-05-23T16:48:07.077Z,40.90
2019-05-23T16:50:51.300Z,40.10
2019-05-23T16:53:22.790Z,40.40
2019-05-23T16:55:55.775Z,41.00
2019-05-23T16:58:53.972Z,41.60
2019-05-23T17:01:35.952Z,41.40
2019-05-23T17:04:25.815Z,42.30
2019-05-23T17:10:08.875Z,43.30
2019-05-23T17:12:41.915Z,43.00
2019-05-23T17:15:16.613Z,51.40
2019-05-23T17:18:02.634Z,42.70
2019-05-23T17:23:10.281Z,87.70
2019-05-23T17:25:42.191Z,44.20
2019-05-23T17:28:14.318Z,43.60
2019-05-23T17:33:25.113Z,91.00
2019-05-23T17:35:56.914Z,44.00
2019-05-23T17:38:27.368Z,44.10
2019-05-23T17:41:06.190Z,44.90
2019-05-23T17:46:23.797Z,69.40
2019-05-23T17:48:54.255Z,66.30
2019-05-23T17:51:27.067Z,79.30
2019-05-23T17:53:58.842Z,78.70
2019-05-23T17:56:31.160Z,70.00
2019-05-23T17:59:01.549Z,63.20
2019-05-23T18:01:43.029Z,61.10
2019-05-23T18:04:13.819Z,61.60
2019-05-23T18:06:44.053Z,62.50
2019-05-23T18:09:18.737Z,59.50
2019-05-23T18:11:49.272Z,57.70
2019-05-23T18:14:24.269Z,56.50
2019-05-23T18:16:54.709Z,55.70
2019-05-23T18:19:27.276Z,56.30
2019-05-23T18:21:57.606Z,56.30
2019-05-23T18:24:30.960Z,57.60
2019-05-23T18:27:01.307Z,58.70
2019-05-23T18:29:33.514Z,59.90
2019-05-23T18:32:05.493Z,61.00
2019-05-23T18:34:36.680Z,50.60
2019-05-23T18:37:07.803Z,48.00
2019-05-23T18:39:46.781Z,48.00
2019-05-23T18:42:17.289Z,47.70
2019-05-23T18:44:49.625Z,47.70
2019-05-23T18:47:27.965Z,48.00
2019-05-23T18:49:58.348Z,48.60
2019-05-23T18:52:32.686Z,49.50
2019-05-23T18:55:03.671Z,48.00
2019-05-23T18:57:34.386Z,48.10
2019-05-23T19:00:06.799Z,48.50
2019-05-23T19:02:47.202Z,48.40
2019-05-23T19:05:18.607Z,48.30
2019-05-23T19:07:52.352Z,48.50
2019-05-23T19:10:33.845Z,48.60
2019-05-23T19:13:04.129Z,48.60
2019-05-23T19:15:34.717Z,49.00
2019-05-23T19:18:05.502Z,48.80
2019-05-23T19:20:36.555Z,49.00
2019-05-23T19:23:11.618Z,49.50
2019-05-23T19:25:43.358Z,49.10
2019-05-23T19:28:14.322Z,49.20
2019-05-23T19:30:46.180Z,49.30
2019-05-23T19:33:16.966Z,49.50
2019-05-23T19:35:51.984Z,49.60
2019-05-23T19:38:22.368Z,50.40
2019-05-23T19:40:55.846Z,49.60
2019-05-23T19:43:26.650Z,50.20
2019-05-23T19:45:58.625Z,50.20
2019-05-23T19:48:33.281Z,50.00
2019-05-23T19:51:03.980Z,49.90
2019-05-23T19:53:36.055Z,50.80
2019-05-23T19:56:07.522Z,51.40
2019-05-23T19:58:38.965Z,52.60
2019-05-23T20:01:10.603Z,50.70
2019-05-23T20:03:41.250Z,51.70
2019-05-23T20:06:11.791Z,51.60
2019-05-23T20:08:50.504Z,51.30
2019-05-23T20:11:21.873Z,52.10
2019-05-23T20:13:52.600Z,51.70
2019-05-23T20:16:28.282Z,52.30
2019-05-23T20:18:59.718Z,51.70
2019-05-23T20:24:29.191Z,52.20
2019-05-23T20:26:59.446Z,52.10
2019-05-23T20:29:37.905Z,52.30
2019-05-23T20:32:09.415Z,54.30
2019-05-23T20:34:39.902Z,52.30
2019-05-23T20:37:10.450Z,52.80
2019-05-23T20:39:42.744Z,52.40
2019-05-23T20:42:13.049Z,52.90
2019-05-23T20:44:47.235Z,52.60
2019-05-23T20:47:17.903Z,53.30
2019-05-23T20:49:55.256Z,58.40
2019-05-23T20:52:25.509Z,69.60
2019-05-23T20:55:01.908Z,70.50
2019-05-23T21:00:09.007Z,81.90
2019-05-23T21:02:39.781Z,80.40
2019-05-23T21:05:15.623Z,80.30
2019-05-23T21:07:45.917Z,81.70
2019-05-23T21:10:35.496Z,82.10
2019-05-23T21:13:05.795Z,82.60
2019-05-23T21:15:40.909Z,83.00
2019-05-23T21:18:11.682Z,84.10
2019-05-23T21:20:44.346Z,83.40
2019-05-23T21:23:18.971Z,83.20
2019-05-23T21:25:51.233Z,83.10
2019-05-23T21:28:27.957Z,83.00
2019-05-23T21:30:58.177Z,75.30
2019-05-23T21:33:31.741Z,76.50
2019-05-23T21:36:02.012Z,76.10
2019-05-23T21:38:33.311Z,76.20
2019-05-23T21:41:03.823Z,76.10
2019-05-23T21:43:35.456Z,76.70
2019-05-23T21:46:05.754Z,77.30
2019-05-23T21:48:49.247Z,78.00
2019-05-23T21:51:19.809Z,79.00
2019-05-23T21:53:50.139Z,78.60
2019-05-23T21:56:20.327Z,82.30
2019-05-23T21:59:01.947Z,83.50
2019-05-23T22:01:42.961Z,84.40
2019-05-23T22:04:28.331Z,84.20
2019-05-23T22:07:00.842Z,84.30
2019-05-23T22:09:31.438Z,84.50
2019-05-23T22:12:04.637Z,84.80
2019-05-23T22:14:35.663Z,84.60
2019-05-23T22:17:06.109Z,84.40
2019-05-23T22:19:38.832Z,85.00
2019-05-23T22:22:10.557Z,84.50
2019-05-23T22:24:40.888Z,84.90
2019-05-23T22:27:11.207Z,84.30
2019-05-23T22:29:41.492Z,84.30
2019-05-23T22:32:13.308Z,84.50
2019-05-23T22:34:57.465Z,85.30
2019-05-23T22:37:27.679Z,84.40
2019-05-23T22:40:25.990Z,85.00
2019-05-23T22:42:57.822Z,84.60
2019-05-23T22:45:28.954Z,84.60
2019-05-23T22:47:59.240Z,84.80
2019-05-23T22:50:29.537Z,84.40
2019-05-23T22:52:59.820Z,85.00
2019-05-23T22:55:31.513Z,85.10
2019-05-23T22:58:01.792Z,84.80
2019-05-23T23:00:33.617Z,85.80
2019-05-23T23:03:05.053Z,85.90
2019-05-23T23:05:35.482Z,85.40
2019-05-23T23:08:05.728Z,86.00
2019-05-23T23:10:43.657Z,85.90
2019-05-23T23:13:15.566Z,86.20
2019-05-23T23:15:45.951Z,86.90
2019-05-23T23:18:16.267Z,85.60
2019-05-23T23:20:46.497Z,85.90
2019-05-23T23:23:17.078Z,86.00
2019-05-23T23:26:00.472Z,87.00
2019-05-23T23:28:30.880Z,86.00
2019-05-23T23:31:01.198Z,86.00
2019-05-23T23:33:32.494Z,85.80
2019-05-23T23:36:02.829Z,86.70
2019-05-23T23:38:33.553Z,86.00
2019-05-23T23:41:36.469Z,85.90
2019-05-23T23:44:14.102Z,86.20
2019-05-23T23:47:10.164Z,86.70
2019-05-23T23:49:59.522Z,86.40
2019-05-23T23:52:47.700Z,86.30
2019-05-23T23:55:36.741Z,86.10
2019-05-23T23:58:06.571Z,86.20
